createdAt,value
2023-02-23T00:02:09.970Z,7.40
2023-02-23T00:04:38.603Z,7.40
2023-02-23T00:07:07.581Z,7.40
2023-02-23T00:09:36.249Z,7.40
2023-02-23T00:12:08.781Z,7.40
2023-02-23T00:14:38.843Z,7.40
2023-02-23T00:17:14.549Z,7.40
2023-02-23T00:19:44.323Z,7.40
2023-02-23T00:22:13.027Z,7.30
2023-02-23T00:24:43.196Z,7.30
2023-02-23T00:27:17.920Z,7.30
2023-02-23T00:29:49.686Z,7.30
2023-02-23T00:32:20.908Z,7.20
2023-02-23T00:34:50.518Z,7.20
2023-02-23T00:37:19.869Z,7.20
2023-02-23T00:39:52.153Z,7.10
2023-02-23T00:42:22.397Z,7.10
2023-02-23T00:44:51.037Z,7.10
2023-02-23T00:47:19.458Z,7.10
2023-02-23T00:49:51.056Z,7.10
2023-02-23T00:52:20.777Z,7.00
2023-02-23T00:54:49.220Z,7.00
2023-02-23T00:57:17.559Z,7.00
2023-02-23T00:59:47.262Z,7.00
2023-02-23T01:02:17.058Z,7.00
2023-02-23T01:04:45.451Z,6.90
2023-02-23T01:07:13.885Z,6.90
2023-02-23T01:09:42.573Z,6.90
2023-02-23T01:12:12.464Z,6.90
2023-02-23T01:14:42.586Z,6.90
2023-02-23T01:17:13.701Z,6.90
2023-02-23T01:19:42.110Z,6.90
2023-02-23T01:22:10.590Z,6.90
2023-02-23T01:24:40.971Z,6.90
2023-02-23T01:27:09.869Z,6.80
2023-02-23T01:29:38.172Z,6.80
2023-02-23T01:32:06.820Z,6.80
2023-02-23T01:34:36.752Z,6.80
2023-02-23T01:37:05.332Z,6.80
2023-02-23T01:39:34.171Z,6.80
2023-02-23T01:42:05.630Z,6.70
2023-02-23T01:45:22.920Z,6.80
2023-02-23T01:47:53.215Z,6.70
2023-02-23T01:50:26.715Z,6.70
2023-02-23T01:52:56.898Z,6.70
2023-02-23T01:55:29.247Z,6.70
2023-02-23T01:58:15.464Z,6.70
2023-02-23T02:00:47.573Z,6.70
2023-02-23T02:03:29.727Z,6.70
2023-02-23T02:06:02.028Z,6.70
2023-02-23T02:08:32.661Z,6.70
2023-02-23T02:11:01.249Z,6.70
2023-02-23T02:13:32.237Z,6.70
2023-02-23T02:16:36.185Z,6.70
2023-02-23T02:19:29.167Z,6.80
2023-02-23T02:22:30.762Z,6.70
2023-02-23T02:25:35.092Z,6.70
2023-02-23T02:28:45.121Z,6.80
2023-02-23T02:32:01.519Z,6.80
2023-02-23T02:34:58.504Z,6.80
2023-02-23T02:37:56.855Z,6.80
2023-02-23T02:40:32.594Z,6.70
2023-02-23T02:43:10.378Z,6.80
2023-02-23T02:45:50.401Z,6.70
2023-02-23T02:48:42.423Z,6.70
2023-02-23T02:51:20.834Z,6.70
2023-02-23T02:53:54.707Z,6.70
2023-02-23T02:56:26.794Z,6.80
2023-02-23T02:58:56.975Z,6.70
2023-02-23T03:01:43.186Z,6.70
2023-02-23T03:04:40.130Z,6.70
2023-02-23T03:07:34.545Z,6.70
2023-02-23T03:10:30.710Z,6.70
2023-02-23T03:13:29.126Z,6.70
2023-02-23T03:16:27.366Z,6.70
2023-02-23T03:19:25.829Z,6.70
2023-02-23T03:22:18.065Z,6.70
2023-02-23T03:25:11.468Z,6.70
2023-02-23T03:28:07.421Z,6.70
2023-02-23T03:31:03.680Z,6.70
2023-02-23T03:33:56.673Z,6.70
2023-02-23T03:36:46.376Z,6.70
2023-02-23T03:39:42.239Z,6.70
2023-02-23T03:42:32.605Z,6.70
2023-02-23T03:45:24.888Z,6.70
2023-02-23T03:48:14.336Z,6.70
2023-02-23T03:51:05.809Z,6.70
2023-02-23T03:53:59.755Z,6.70
2023-02-23T03:56:49.555Z,6.70
2023-02-23T03:59:39.812Z,6.70
2023-02-23T04:02:29.287Z,6.70
2023-02-23T04:05:18.652Z,6.70
2023-02-23T04:08:06.637Z,6.70
2023-02-23T04:10:54.016Z,6.70
2023-02-23T04:13:26.989Z,6.70
2023-02-23T04:15:57.504Z,6.70
2023-02-23T04:18:30.375Z,6.70
2023-02-23T04:21:00.161Z,6.70
2023-02-23T04:23:29.427Z,6.70
2023-02-23T04:25:58.303Z,6.70
2023-02-23T04:28:28.494Z,6.70
2023-02-23T04:30:57.042Z,6.70
2023-02-23T04:33:27.402Z,6.70
2023-02-23T04:35:56.056Z,6.70
2023-02-23T04:38:24.628Z,6.70
2023-02-23T04:40:53.099Z,6.70
2023-02-23T04:43:21.455Z,6.70
2023-02-23T04:45:49.896Z,6.70
2023-02-23T04:48:18.265Z,6.70
2023-02-23T04:50:47.980Z,6.70
2023-02-23T04:53:16.345Z,6.70
2023-02-23T04:55:47.120Z,6.70
2023-02-23T04:58:15.958Z,6.70
2023-02-23T05:00:44.438Z,6.70
2023-02-23T05:03:12.926Z,6.70
2023-02-23T05:05:41.440Z,6.70
2023-02-23T05:08:11.504Z,6.70
2023-02-23T05:10:40.506Z,6.70
2023-02-23T05:13:08.969Z,6.70
2023-02-23T05:15:38.782Z,6.70
2023-02-23T05:18:08.225Z,6.70
2023-02-23T05:20:36.682Z,6.70
2023-02-23T05:23:05.219Z,6.70
2023-02-23T05:25:34.970Z,6.70
2023-02-23T05:28:03.823Z,6.70
2023-02-23T05:30:33.288Z,6.70
2023-02-23T05:33:01.790Z,6.70
2023-02-23T05:35:30.624Z,6.70
2023-02-23T05:37:58.924Z,6.70
2023-02-23T05:40:27.277Z,6.70
2023-02-23T05:43:01.631Z,6.70
2023-02-23T05:45:30.146Z,6.70
2023-02-23T05:47:59.117Z,6.70
2023-02-23T05:50:27.613Z,6.70
2023-02-23T05:52:56.006Z,6.70
2023-02-23T05:55:24.525Z,6.70
2023-02-23T05:57:53.064Z,6.70
2023-02-23T06:00:23.284Z,6.70
2023-02-23T06:02:54.111Z,6.70
2023-02-23T06:05:22.579Z,6.70
2023-02-23T06:07:50.934Z,6.70
2023-02-23T06:10:19.594Z,6.70
2023-02-23T06:12:47.933Z,6.70
2023-02-23T06:15:16.458Z,6.70
2023-02-23T06:17:46.118Z,6.80
2023-02-23T06:20:15.638Z,6.80
2023-02-23T06:22:43.949Z,6.80
2023-02-23T06:25:13.536Z,6.80
2023-02-23T06:27:43.997Z,6.80
2023-02-23T06:30:14.131Z,6.80
2023-02-23T06:32:42.544Z,6.80
2023-02-23T06:35:15.973Z,6.80
2023-02-23T06:37:45.089Z,6.80
2023-02-23T06:40:13.650Z,6.90
2023-02-23T06:42:42.094Z,6.90
2023-02-23T06:45:11.363Z,6.90
2023-02-23T06:47:40.098Z,6.90
2023-02-23T06:50:09.024Z,6.90
2023-02-23T06:52:39.145Z,7.00
2023-02-23T06:55:09.003Z,7.00
2023-02-23T06:57:37.433Z,7.00
2023-02-23T07:00:06.653Z,7.00
2023-02-23T07:02:37.639Z,7.00
2023-02-23T07:05:06.360Z,7.10
2023-02-23T07:07:34.790Z,7.10
2023-02-23T07:10:04.853Z,7.10
2023-02-23T07:12:33.848Z,7.10
2023-02-23T07:15:02.258Z,7.20
2023-02-23T07:17:30.700Z,7.20
2023-02-23T07:19:59.072Z,7.20
2023-02-23T07:22:30.339Z,7.30
2023-02-23T07:24:58.864Z,7.30
2023-02-23T07:27:28.613Z,7.30
2023-02-23T07:29:56.984Z,7.40
2023-02-23T07:32:25.489Z,7.40
2023-02-23T07:34:54.084Z,7.40
2023-02-23T07:37:22.576Z,7.50
2023-02-23T07:39:51.024Z,7.50
2023-02-23T07:42:19.438Z,7.50
2023-02-23T07:44:49.305Z,7.60
2023-02-23T07:47:17.729Z,7.60
2023-02-23T07:49:46.180Z,7.70
2023-02-23T07:52:18.129Z,7.70
2023-02-23T07:54:46.551Z,7.80
2023-02-23T07:57:15.029Z,7.80
2023-02-23T07:59:43.651Z,7.90
2023-02-23T08:02:15.118Z,7.90
2023-02-23T08:04:44.416Z,8.00
2023-02-23T08:07:12.896Z,8.00
2023-02-23T08:09:41.177Z,8.10
2023-02-23T08:12:10.613Z,8.10
2023-02-23T08:14:38.928Z,8.20
2023-02-23T08:17:07.857Z,8.20
2023-02-23T08:19:37.777Z,8.20
2023-02-23T08:22:08.950Z,8.30
2023-02-23T08:24:39.806Z,8.30
2023-02-23T08:27:08.196Z,8.40
2023-02-23T08:29:36.520Z,8.40
2023-02-23T08:32:06.248Z,8.40
2023-02-23T08:34:40.651Z,8.40
2023-02-23T08:37:10.507Z,8.50
2023-02-23T08:39:39.100Z,8.40
2023-02-23T08:42:07.674Z,8.50
2023-02-23T08:44:36.069Z,8.50
2023-02-23T08:47:04.740Z,8.50
2023-02-23T08:49:33.620Z,8.50
2023-02-23T08:52:03.401Z,8.50
2023-02-23T08:54:31.910Z,8.60
2023-02-23T08:57:00.245Z,8.60
2023-02-23T08:59:28.697Z,8.60
2023-02-23T09:01:57.125Z,8.70
2023-02-23T09:04:25.539Z,8.70
2023-02-23T09:06:54.573Z,8.70
2023-02-23T09:09:24.249Z,8.70
2023-02-23T09:11:52.645Z,8.80
2023-02-23T09:14:21.246Z,8.80
2023-02-23T09:16:49.804Z,8.80
2023-02-23T09:19:18.563Z,8.90
2023-02-23T09:21:47.004Z,8.90
2023-02-23T09:24:18.691Z,8.90
2023-02-23T09:26:48.511Z,8.90
2023-02-23T09:29:17.183Z,8.90
2023-02-23T09:31:45.636Z,8.90
2023-02-23T09:34:14.026Z,8.90
2023-02-23T09:36:42.419Z,9.00
2023-02-23T09:39:10.815Z,9.00
2023-02-23T09:41:57.215Z,9.00
2023-02-23T09:44:45.195Z,9.00
2023-02-23T09:47:27.425Z,9.00
2023-02-23T09:49:59.164Z,9.00
2023-02-23T09:52:36.239Z,9.10
2023-02-23T09:55:05.167Z,9.10
2023-02-23T09:57:39.201Z,9.20
2023-02-23T10:00:17.578Z,9.20
2023-02-23T10:03:00.519Z,9.30
2023-02-23T10:05:33.064Z,9.30
2023-02-23T10:08:07.530Z,9.40
2023-02-23T10:10:43.069Z,9.40
2023-02-23T10:13:21.941Z,9.50
2023-02-23T10:15:55.986Z,9.50
2023-02-23T10:18:45.748Z,9.60
2023-02-23T10:21:18.349Z,9.60
2023-02-23T10:23:51.768Z,9.70
2023-02-23T10:26:23.586Z,9.70
2023-02-23T10:28:56.023Z,9.70
2023-02-23T10:31:37.857Z,9.80
2023-02-23T10:34:14.460Z,9.90
2023-02-23T10:36:49.382Z,9.90
2023-02-23T10:39:17.989Z,10.00
2023-02-23T10:41:46.843Z,10.00
2023-02-23T10:44:21.575Z,10.10
2023-02-23T10:46:55.897Z,10.10
2023-02-23T10:49:30.334Z,10.10
2023-02-23T10:52:03.178Z,10.20
2023-02-23T10:54:44.032Z,10.20
2023-02-23T10:57:20.625Z,10.20
2023-02-23T11:00:09.296Z,10.30
2023-02-23T11:02:38.066Z,10.30
2023-02-23T11:05:07.767Z,10.30
2023-02-23T11:07:36.227Z,10.40
2023-02-23T11:10:27.562Z,10.40
2023-02-23T11:12:55.941Z,10.50
2023-02-23T11:15:48.575Z,10.50
2023-02-23T11:18:23.352Z,10.60
2023-02-23T11:20:52.465Z,10.60
2023-02-23T11:23:29.403Z,10.60
2023-02-23T11:26:03.611Z,10.60
2023-02-23T11:28:34.913Z,10.60
2023-02-23T11:31:10.559Z,10.60
2023-02-23T11:33:41.075Z,10.60
2023-02-23T11:36:19.141Z,10.60
2023-02-23T11:38:48.075Z,10.60
2023-02-23T11:41:23.130Z,10.60
2023-02-23T11:43:52.254Z,10.60
2023-02-23T11:46:23.514Z,10.60
2023-02-23T11:48:56.108Z,10.50
2023-02-23T11:51:27.646Z,10.50
2023-02-23T11:53:56.506Z,10.50
2023-02-23T11:56:26.771Z,10.40
2023-02-23T11:58:57.816Z,10.40
2023-02-23T12:01:41.894Z,10.30
2023-02-23T12:04:11.892Z,10.30
2023-02-23T12:06:44.579Z,10.20
2023-02-23T12:09:21.623Z,10.20
2023-02-23T12:11:56.820Z,10.20
2023-02-23T12:14:32.864Z,10.20
2023-02-23T12:17:07.758Z,10.20
2023-02-23T12:19:41.828Z,10.20
2023-02-23T12:22:15.300Z,10.20
2023-02-23T12:24:49.222Z,10.20
2023-02-23T12:27:22.582Z,10.20
2023-02-23T12:30:06.814Z,10.30
2023-02-23T12:32:46.695Z,10.30
2023-02-23T12:35:19.251Z,10.30
2023-02-23T12:37:54.157Z,10.30
2023-02-23T12:40:28.491Z,10.40
2023-02-23T12:43:03.855Z,10.40
2023-02-23T12:45:38.427Z,10.40
2023-02-23T12:48:18.431Z,10.40
2023-02-23T12:50:53.077Z,10.40
2023-02-23T12:53:26.416Z,10.40
2023-02-23T12:56:13.484Z,10.40
2023-02-23T12:58:48.444Z,10.40
2023-02-23T13:01:24.760Z,10.40
2023-02-23T13:04:23.637Z,10.40
2023-02-23T13:06:59.829Z,10.40
2023-02-23T13:09:44.736Z,10.40
2023-02-23T13:12:27.173Z,10.40
2023-02-23T13:15:02.826Z,10.40
2023-02-23T13:17:39.954Z,10.40
2023-02-23T13:20:15.659Z,10.40
2023-02-23T13:22:50.478Z,10.40
2023-02-23T13:25:30.405Z,10.40
2023-02-23T13:28:02.092Z,10.30
2023-02-23T13:30:33.618Z,10.40
2023-02-23T13:33:20.102Z,10.30
2023-02-23T13:35:48.548Z,10.30
2023-02-23T13:38:24.765Z,10.30
2023-02-23T13:41:00.891Z,10.30
2023-02-23T13:43:35.400Z,10.30
2023-02-23T13:46:32.228Z,10.30
2023-02-23T13:49:12.681Z,10.40
2023-02-23T13:51:44.416Z,10.40
2023-02-23T13:54:26.433Z,10.40
2023-02-23T13:56:58.046Z,10.50
2023-02-23T13:59:30.231Z,10.50
2023-02-23T14:02:01.774Z,10.60
2023-02-23T14:04:36.728Z,10.70
2023-02-23T14:07:18.857Z,10.90
2023-02-23T14:09:55.156Z,11.10
2023-02-23T14:12:27.894Z,11.30
2023-02-23T14:14:56.261Z,11.40
2023-02-23T14:17:42.722Z,11.60
2023-02-23T14:20:36.436Z,11.90
2023-02-23T14:23:18.596Z,12.00
2023-02-23T14:25:56.940Z,12.10
2023-02-23T14:28:34.539Z,12.20
2023-02-23T14:31:17.269Z,12.20
2023-02-23T14:33:54.043Z,12.40
2023-02-23T14:36:37.936Z,12.80
2023-02-23T14:39:11.391Z,13.10
2023-02-23T14:41:50.347Z,13.40
2023-02-23T14:44:29.462Z,13.60
2023-02-23T14:47:04.286Z,13.70
2023-02-23T14:49:37.000Z,13.80
2023-02-23T14:52:10.972Z,13.70
2023-02-23T14:54:41.038Z,13.60
2023-02-23T14:57:20.019Z,13.50
2023-02-23T14:59:55.117Z,13.30
2023-02-23T15:02:25.362Z,13.00
2023-02-23T15:04:54.279Z,12.80
2023-02-23T15:07:33.511Z,12.60
2023-02-23T15:10:06.502Z,12.30
2023-02-23T15:12:39.673Z,12.10
2023-02-23T15:15:18.172Z,11.80
2023-02-23T15:17:49.115Z,11.60
2023-02-23T15:20:19.524Z,11.40
2023-02-23T15:22:53.964Z,11.20
2023-02-23T15:25:26.113Z,11.00
2023-02-23T15:27:56.179Z,10.80
2023-02-23T15:30:31.130Z,10.60
2023-02-23T15:33:04.866Z,10.50
2023-02-23T15:35:42.454Z,10.30
2023-02-23T15:38:17.814Z,10.20
2023-02-23T15:40:58.675Z,10.10
2023-02-23T15:43:29.926Z,10.00
2023-02-23T15:46:03.624Z,9.90
2023-02-23T15:48:45.997Z,9.80
2023-02-23T15:51:28.269Z,9.70
2023-02-23T15:53:56.988Z,9.60
2023-02-23T15:56:28.217Z,9.60
2023-02-23T15:59:02.825Z,9.50
2023-02-23T16:01:32.914Z,9.40
2023-02-23T16:04:03.815Z,9.40
2023-02-23T16:06:35.642Z,9.30
2023-02-23T16:09:22.083Z,9.30
2023-02-23T16:11:53.111Z,9.20
2023-02-23T16:14:24.678Z,9.20
2023-02-23T16:17:08.700Z,9.20
2023-02-23T16:19:41.612Z,9.10
2023-02-23T16:22:21.449Z,9.10
2023-02-23T16:24:56.430Z,9.10
2023-02-23T16:27:26.816Z,9.00
2023-02-23T16:30:03.969Z,9.00
2023-02-23T16:32:39.449Z,9.00
2023-02-23T16:35:17.373Z,9.00
2023-02-23T16:37:58.706Z,9.00
2023-02-23T16:40:27.395Z,8.90
2023-02-23T16:42:59.520Z,8.90
2023-02-23T16:45:29.840Z,8.90
2023-02-23T16:48:02.635Z,8.90
2023-02-23T16:50:33.747Z,8.90
2023-02-23T16:53:03.678Z,8.90
2023-02-23T16:55:39.417Z,8.80
2023-02-23T16:58:12.737Z,8.80
2023-02-23T17:00:42.731Z,8.80
2023-02-23T17:03:20.361Z,8.80
2023-02-23T17:05:48.960Z,8.80
2023-02-23T17:08:17.774Z,8.80
2023-02-23T17:10:48.913Z,8.70
2023-02-23T17:13:19.976Z,8.70
2023-02-23T17:15:53.841Z,8.70
2023-02-23T17:20:53.780Z,8.60
2023-02-23T17:23:26.123Z,8.50
2023-02-23T17:25:56.060Z,8.50
2023-02-23T17:28:25.958Z,8.40
2023-02-23T17:30:55.908Z,8.40
2023-02-23T17:33:25.309Z,8.30
2023-02-23T17:35:53.831Z,8.30
2023-02-23T17:38:23.315Z,8.20
2023-02-23T17:40:51.689Z,8.20
2023-02-23T17:43:22.558Z,8.10
2023-02-23T17:45:51.602Z,8.10
2023-02-23T17:48:21.501Z,8.00
2023-02-23T17:50:50.102Z,8.00
2023-02-23T17:53:18.392Z,8.00
2023-02-23T17:55:47.701Z,7.90
2023-02-23T17:58:16.015Z,7.90
2023-02-23T18:00:44.706Z,7.90
2023-02-23T18:03:13.067Z,7.90
2023-02-23T18:05:43.366Z,7.90
2023-02-23T18:08:11.861Z,7.90
2023-02-23T18:10:40.192Z,7.90
2023-02-23T18:13:08.648Z,8.00
2023-02-23T18:15:37.042Z,8.00
2023-02-23T18:18:05.529Z,8.00
2023-02-23T18:20:33.911Z,8.00
2023-02-23T18:23:03.558Z,8.00
2023-02-23T18:25:32.122Z,8.00
2023-02-23T18:28:00.457Z,8.00
2023-02-23T18:30:28.873Z,8.10
2023-02-23T18:33:00.526Z,8.10
2023-02-23T18:35:29.108Z,8.10
2023-02-23T18:37:57.568Z,8.10
2023-02-23T18:40:28.055Z,8.20
2023-02-23T18:42:58.177Z,8.20
2023-02-23T18:45:27.062Z,8.20
2023-02-23T18:47:56.215Z,8.20
2023-02-23T18:50:26.390Z,8.20
2023-02-23T18:52:56.651Z,8.20
2023-02-23T18:55:26.937Z,8.30
2023-02-23T18:57:55.380Z,8.30
2023-02-23T19:00:24.531Z,8.30
2023-02-23T19:02:53.857Z,8.20
2023-02-23T19:05:22.769Z,8.30
2023-02-23T19:07:51.332Z,8.30
2023-02-23T19:10:19.961Z,8.30
2023-02-23T19:12:49.681Z,8.30
2023-02-23T19:15:18.134Z,8.30
2023-02-23T19:17:47.541Z,8.30
2023-02-23T19:20:15.988Z,8.30
2023-02-23T19:22:45.535Z,8.30
2023-02-23T19:25:15.418Z,8.30
2023-02-23T19:27:44.166Z,8.30
2023-02-23T19:30:14.980Z,8.30
2023-02-23T19:32:44.396Z,8.30
2023-02-23T19:35:15.839Z,8.30
2023-02-23T19:37:49.770Z,8.30
2023-02-23T19:40:20.920Z,8.40
2023-02-23T19:42:50.009Z,8.40
2023-02-23T19:45:20.197Z,8.40
2023-02-23T19:47:48.617Z,8.40
2023-02-23T19:50:19.049Z,8.40
2023-02-23T19:52:48.102Z,8.40
2023-02-23T19:55:17.074Z,8.40
2023-02-23T19:57:45.439Z,8.40
2023-02-23T20:00:14.641Z,8.40
2023-02-23T20:02:44.425Z,8.30
2023-02-23T20:05:14.295Z,8.30
2023-02-23T20:07:43.158Z,8.30
2023-02-23T20:10:16.380Z,8.30
2023-02-23T20:12:45.258Z,8.30
2023-02-23T20:15:15.511Z,8.30
2023-02-23T20:17:45.260Z,8.30
2023-02-23T20:20:14.341Z,8.30
2023-02-23T20:22:43.348Z,8.30
2023-02-23T20:25:15.893Z,8.30
2023-02-23T20:27:45.322Z,8.30
2023-02-23T20:30:14.621Z,8.30
2023-02-23T20:32:45.054Z,8.30
2023-02-23T20:35:15.441Z,8.20
2023-02-23T20:37:44.070Z,8.20
2023-02-23T20:40:18.806Z,8.20
2023-02-23T20:42:49.001Z,8.20
2023-02-23T20:45:20.096Z,8.10
2023-02-23T20:47:53.238Z,8.10
2023-02-23T20:50:25.447Z,8.10
2023-02-23T20:52:53.852Z,8.10
2023-02-23T20:55:27.290Z,8.10
2023-02-23T20:57:56.786Z,8.00
2023-02-23T21:00:33.124Z,8.00
2023-02-23T21:03:05.245Z,8.00
2023-02-23T21:05:40.309Z,8.00
2023-02-23T21:08:09.752Z,8.00
2023-02-23T21:10:40.229Z,8.00
2023-02-23T21:13:11.622Z,8.00
2023-02-23T21:15:41.397Z,8.00
2023-02-23T21:18:12.008Z,8.00
2023-02-23T21:20:41.011Z,8.00
2023-02-23T21:23:09.475Z,8.00
2023-02-23T21:25:38.499Z,8.00
2023-02-23T21:28:07.585Z,8.00
2023-02-23T21:30:35.934Z,8.00
2023-02-23T21:33:04.532Z,8.00
2023-02-23T21:35:38.441Z,8.00
2023-02-23T21:38:08.370Z,8.00
2023-02-23T21:40:42.183Z,8.00
2023-02-23T21:43:13.093Z,8.00
2023-02-23T21:45:46.712Z,8.00
2023-02-23T21:48:15.450Z,8.00
2023-02-23T21:50:45.129Z,8.00
2023-02-23T21:53:13.538Z,8.00
2023-02-23T21:55:41.977Z,8.00
2023-02-23T21:58:12.304Z,8.00
2023-02-23T22:00:40.727Z,8.00
2023-02-23T22:03:09.717Z,8.00
2023-02-23T22:05:38.077Z,7.90
2023-02-23T22:08:08.098Z,7.90
2023-02-23T22:10:36.545Z,7.90
2023-02-23T22:13:04.871Z,7.90
2023-02-23T22:15:34.053Z,7.90
2023-02-23T22:18:02.426Z,7.80
2023-02-23T22:20:30.746Z,7.80
2023-02-23T22:22:59.034Z,7.80
2023-02-23T22:25:28.695Z,7.80
2023-02-23T22:27:57.045Z,7.70
2023-02-23T22:30:26.122Z,7.70
2023-02-23T22:32:54.671Z,7.70
2023-02-23T22:35:23.128Z,7.70
2023-02-23T22:37:51.570Z,7.70
2023-02-23T22:40:20.039Z,7.60
2023-02-23T22:42:49.824Z,7.60
2023-02-23T22:45:20.298Z,7.60
2023-02-23T22:47:48.769Z,7.60
2023-02-23T22:50:19.261Z,7.60
2023-02-23T22:52:48.577Z,7.60
2023-02-23T22:55:18.323Z,7.60
2023-02-23T22:57:47.727Z,7.60
2023-02-23T23:00:19.998Z,7.60
2023-02-23T23:02:48.403Z,7.60
2023-02-23T23:05:17.738Z,7.60
2023-02-23T23:07:47.890Z,7.60
2023-02-23T23:10:17.861Z,7.60
2023-02-23T23:12:46.699Z,7.60
2023-02-23T23:15:17.437Z,7.60
2023-02-23T23:17:49.436Z,7.60
2023-02-23T23:20:23.291Z,7.60
2023-02-23T23:22:51.791Z,7.60
2023-02-23T23:25:23.211Z,7.60
2023-02-23T23:27:53.705Z,7.60
2023-02-23T23:30:26.164Z,7.70
2023-02-23T23:32:56.276Z,7.70
2023-02-23T23:35:26.072Z,7.70
2023-02-23T23:37:54.636Z,7.70
2023-02-23T23:40:24.866Z,7.70
2023-02-23T23:42:55.472Z,7.70
2023-02-23T23:45:25.339Z,7.70
2023-02-23T23:47:55.195Z,7.70
2023-02-23T23:50:27.210Z,7.70
2023-02-23T23:52:57.195Z,7.70
2023-02-23T23:55:31.544Z,7.70
2023-02-23T23:58:00.762Z,7.70
